createdAt,value
2022-12-28T00:01:09.000Z,276.04
2022-12-28T00:02:35.000Z,276.03
2022-12-28T00:04:42.000Z,276.03
2022-12-28T00:06:08.000Z,276
2022-12-28T00:08:14.000Z,276.02
2022-12-28T00:09:41.000Z,275.99
2022-12-28T00:11:47.000Z,276.02
2022-12-28T00:13:13.000Z,276.02
2022-12-28T00:15:19.000Z,276.03
2022-12-28T00:16:46.000Z,276.03
2022-12-28T00:18:52.000Z,276.02
2022-12-28T00:20:19.000Z,276.02
2022-12-28T00:22:25.000Z,276.02
2022-12-28T00:23:51.000Z,276.03
2022-12-28T00:25:57.000Z,276.02
2022-12-28T00:27:24.000Z,276.02
2022-12-28T00:29:30.000Z,276.03
2022-12-28T00:30:57.000Z,276.06
2022-12-28T00:33:03.000Z,276.04
2022-12-28T00:34:30.000Z,276.04
2022-12-28T00:36:36.000Z,276
2022-12-28T00:40:03.000Z,276.02
2022-12-28T00:41:30.000Z,276.03
2022-12-28T00:43:36.000Z,276.06
2022-12-28T00:45:02.000Z,276.11
2022-12-28T00:47:08.000Z,276.13
2022-12-28T00:48:35.000Z,276.18
2022-12-28T00:50:41.000Z,276.19
2022-12-28T00:52:08.000Z,276.22
2022-12-28T00:54:14.000Z,276.23
2022-12-28T00:55:40.000Z,276.25
2022-12-28T00:57:47.000Z,276.26
2022-12-28T00:59:13.000Z,276.25
2022-12-28T01:01:19.000Z,276.3
2022-12-28T01:02:46.000Z,276.32
2022-12-28T01:04:53.000Z,276.29
2022-12-28T01:06:20.000Z,276.28
2022-12-28T01:08:26.000Z,276.28
2022-12-28T01:09:52.000Z,276.3
2022-12-28T01:11:59.000Z,276.32
2022-12-28T01:13:25.000Z,276.33
2022-12-28T01:15:31.000Z,276.33
2022-12-28T01:18:22.000Z,276.3
2022-12-28T01:19:49.000Z,276.35
2022-12-28T01:22:00.000Z,276.36
2022-12-28T01:23:26.000Z,276.33
2022-12-28T01:25:32.000Z,276.36
2022-12-28T01:26:59.000Z,276.36
2022-12-28T01:29:05.000Z,276.35
2022-12-28T01:30:31.000Z,276.37
2022-12-28T01:32:37.000Z,276.37
2022-12-28T01:34:04.000Z,276.39
2022-12-28T01:36:12.000Z,276.41
2022-12-28T01:37:39.000Z,276.39
2022-12-28T01:39:45.000Z,276.39
2022-12-28T01:41:11.000Z,276.4
2022-12-28T01:43:17.000Z,276.41
2022-12-28T01:44:57.000Z,276.44
2022-12-28T01:47:03.000Z,276.44
2022-12-28T01:48:29.000Z,276.44
2022-12-28T01:50:36.000Z,276.43
2022-12-28T01:52:02.000Z,276.44
2022-12-28T01:54:08.000Z,276.44
2022-12-28T01:56:59.000Z,276.43
2022-12-28T01:58:26.000Z,276.41
2022-12-28T02:00:32.000Z,276.46
2022-12-28T02:01:59.000Z,276.46
2022-12-28T02:04:05.000Z,276.43
2022-12-28T02:05:31.000Z,276.43
2022-12-28T02:07:38.000Z,276.4
2022-12-28T02:09:04.000Z,276.39
2022-12-28T02:11:10.000Z,276.4
2022-12-28T02:12:37.000Z,276.39
2022-12-28T02:14:43.000Z,276.4
2022-12-28T02:16:09.000Z,276.39
2022-12-28T02:18:16.000Z,276.4
2022-12-28T02:19:42.000Z,276.43
2022-12-28T02:21:48.000Z,276.43
2022-12-28T02:23:15.000Z,276.41
2022-12-28T02:25:21.000Z,276.46
2022-12-28T02:26:47.000Z,276.44
2022-12-28T02:28:54.000Z,276.46
2022-12-28T02:30:20.000Z,276.47
2022-12-28T02:32:26.000Z,276.47
2022-12-28T02:35:17.000Z,276.5
2022-12-28T02:36:44.000Z,276.5
2022-12-28T02:38:50.000Z,276.54
2022-12-28T02:40:17.000Z,276.55
2022-12-28T02:42:23.000Z,276.55
2022-12-28T02:43:49.000Z,276.55
2022-12-28T02:45:55.000Z,276.6
2022-12-28T02:47:22.000Z,276.6
2022-12-28T02:49:28.000Z,276.58
2022-12-28T02:50:55.000Z,276.62
2022-12-28T02:53:01.000Z,276.62
2022-12-28T02:54:27.000Z,276.61
2022-12-28T02:56:33.000Z,276.64
2022-12-28T02:58:00.000Z,276.68
2022-12-28T03:00:06.000Z,276.66
2022-12-28T03:01:33.000Z,276.66
2022-12-28T03:03:39.000Z,276.68
2022-12-28T03:05:05.000Z,276.7
2022-12-28T03:07:11.000Z,276.72
2022-12-28T03:08:38.000Z,276.72
2022-12-28T03:10:44.000Z,276.66
2022-12-28T03:13:35.000Z,276.66
2022-12-28T03:15:02.000Z,276.68
2022-12-28T03:17:08.000Z,276.66
2022-12-28T03:18:34.000Z,276.68
2022-12-28T03:20:40.000Z,276.68
2022-12-28T03:22:07.000Z,276.66
2022-12-28T03:24:13.000Z,276.7
2022-12-28T03:25:40.000Z,276.7
2022-12-28T03:27:46.000Z,276.72
2022-12-28T03:29:12.000Z,276.72
2022-12-28T03:31:18.000Z,276.72
2022-12-28T03:32:45.000Z,276.73
2022-12-28T03:34:51.000Z,276.76
2022-12-28T03:36:18.000Z,276.76
2022-12-28T03:38:24.000Z,276.77
2022-12-28T03:39:50.000Z,276.76
2022-12-28T03:41:56.000Z,276.76
2022-12-28T03:43:23.000Z,276.79
2022-12-28T03:45:29.000Z,276.8
2022-12-28T03:47:13.000Z,276.83
2022-12-28T03:49:19.000Z,276.86
2022-12-28T03:52:11.000Z,276.87
2022-12-28T03:53:37.000Z,276.93
2022-12-28T03:55:43.000Z,276.94
2022-12-28T03:57:10.000Z,276.94
2022-12-28T03:59:16.000Z,276.94
2022-12-28T04:00:42.000Z,276.94
2022-12-28T04:02:49.000Z,276.93
2022-12-28T04:04:15.000Z,276.94
2022-12-28T04:06:21.000Z,276.95
2022-12-28T04:07:48.000Z,276.97
2022-12-28T04:09:54.000Z,276.98
2022-12-28T04:11:21.000Z,276.98
2022-12-28T04:13:27.000Z,276.97
2022-12-28T04:14:53.000Z,276.95
2022-12-28T04:16:59.000Z,276.95
2022-12-28T04:18:26.000Z,276.95
2022-12-28T04:20:32.000Z,276.94
2022-12-28T04:21:58.000Z,276.93
2022-12-28T04:24:05.000Z,276.93
2022-12-28T04:25:31.000Z,276.94
2022-12-28T04:27:37.000Z,276.93
2022-12-28T04:30:28.000Z,276.91
2022-12-28T04:31:55.000Z,276.91
2022-12-28T04:34:01.000Z,276.94
2022-12-28T04:35:27.000Z,276.94
2022-12-28T04:37:33.000Z,276.94
2022-12-28T04:39:00.000Z,276.91
2022-12-28T04:41:06.000Z,276.93
2022-12-28T04:42:32.000Z,276.91
2022-12-28T04:44:39.000Z,276.93
2022-12-28T04:46:05.000Z,276.93
2022-12-28T04:48:11.000Z,276.93
2022-12-28T04:49:38.000Z,276.91
2022-12-28T04:51:44.000Z,276.91
2022-12-28T04:53:11.000Z,276.88
2022-12-28T04:55:17.000Z,276.86
2022-12-28T04:56:59.000Z,276.86
2022-12-28T04:59:05.000Z,276.9
2022-12-28T05:00:32.000Z,276.91
2022-12-28T05:02:38.000Z,276.94
2022-12-28T05:04:05.000Z,276.94
2022-12-28T05:06:11.000Z,276.94
2022-12-28T05:09:02.000Z,276.95
2022-12-28T05:10:29.000Z,276.97
2022-12-28T05:12:35.000Z,276.98
2022-12-28T05:14:01.000Z,276.99
2022-12-28T05:16:07.000Z,277.06
2022-12-28T05:17:34.000Z,277.06
2022-12-28T05:19:40.000Z,277.06
2022-12-28T05:21:06.000Z,277.08
2022-12-28T05:23:13.000Z,277.09
2022-12-28T05:24:39.000Z,277.09
2022-12-28T05:26:45.000Z,277.09
2022-12-28T05:28:12.000Z,277.09
2022-12-28T05:30:18.000Z,277.11
2022-12-28T05:31:44.000Z,277.15
2022-12-28T05:33:51.000Z,277.16
2022-12-28T05:35:17.000Z,277.19
2022-12-28T05:37:23.000Z,277.19
2022-12-28T05:38:50.000Z,277.22
2022-12-28T05:40:56.000Z,277.23
2022-12-28T05:42:23.000Z,277.25
2022-12-28T05:44:29.000Z,277.25
2022-12-28T05:47:20.000Z,277.26
2022-12-28T05:48:46.000Z,277.26
2022-12-28T05:50:52.000Z,277.26
2022-12-28T05:52:23.000Z,277.29
2022-12-28T05:54:29.000Z,277.29
2022-12-28T05:55:55.000Z,277.27
2022-12-28T05:58:01.000Z,277.3
2022-12-28T05:59:28.000Z,277.29
2022-12-28T06:01:34.000Z,277.31
2022-12-28T06:03:01.000Z,277.3
2022-12-28T06:05:07.000Z,277.36
2022-12-28T06:06:34.000Z,277.37
2022-12-28T06:08:40.000Z,277.37
2022-12-28T06:10:06.000Z,277.36
2022-12-28T06:12:12.000Z,277.36
2022-12-28T06:13:39.000Z,277.38
2022-12-28T06:15:45.000Z,277.38
2022-12-28T06:17:12.000Z,277.4
2022-12-28T06:19:18.000Z,277.43
2022-12-28T06:20:44.000Z,277.45
2022-12-28T06:22:50.000Z,277.43
2022-12-28T06:25:42.000Z,277.46
2022-12-28T06:27:08.000Z,277.49
2022-12-28T06:29:14.000Z,277.52
2022-12-28T06:30:41.000Z,277.52
2022-12-28T06:32:47.000Z,277.51
2022-12-28T06:34:13.000Z,277.53
2022-12-28T06:36:19.000Z,277.55
2022-12-28T06:37:47.000Z,277.53
2022-12-28T06:39:53.000Z,277.6
2022-12-28T06:41:19.000Z,277.65
2022-12-28T06:43:25.000Z,277.67
2022-12-28T06:44:52.000Z,277.71
2022-12-28T06:46:58.000Z,277.71
2022-12-28T06:48:25.000Z,277.71
2022-12-28T06:50:31.000Z,277.71
2022-12-28T06:52:04.000Z,277.71
2022-12-28T06:54:10.000Z,277.78
2022-12-28T06:55:37.000Z,277.79
2022-12-28T06:57:43.000Z,277.77
2022-12-28T06:59:09.000Z,277.77
2022-12-28T07:01:16.000Z,277.81
2022-12-28T07:04:07.000Z,277.84
2022-12-28T07:05:33.000Z,277.84
2022-12-28T07:07:39.000Z,277.84
2022-12-28T07:09:06.000Z,277.93
2022-12-28T07:11:12.000Z,278.02
2022-12-28T07:12:39.000Z,278.04
2022-12-28T07:14:45.000Z,278.06
2022-12-28T07:16:11.000Z,278.1
2022-12-28T07:18:17.000Z,278.1
2022-12-28T07:19:44.000Z,278.13
2022-12-28T07:21:50.000Z,278.14
2022-12-28T07:23:17.000Z,278.17
2022-12-28T07:25:23.000Z,278.18
2022-12-28T07:26:49.000Z,278.26
2022-12-28T07:28:55.000Z,278.22
2022-12-28T07:30:22.000Z,278.2
2022-12-28T07:32:28.000Z,278.24
2022-12-28T07:33:55.000Z,278.24
2022-12-28T07:36:01.000Z,278.28
2022-12-28T07:37:27.000Z,278.3
2022-12-28T07:39:33.000Z,278.33
2022-12-28T07:42:24.000Z,278.32
2022-12-28T07:43:51.000Z,278.32
2022-12-28T07:45:57.000Z,278.3
2022-12-28T07:47:24.000Z,278.29
2022-12-28T07:49:30.000Z,278.3
2022-12-28T07:50:56.000Z,278.36
2022-12-28T07:53:02.000Z,278.39
2022-12-28T07:54:29.000Z,278.39
2022-12-28T07:58:01.000Z,278.4
2022-12-28T08:00:07.000Z,278.4
2022-12-28T08:01:34.000Z,278.44
2022-12-28T08:03:40.000Z,278.47
2022-12-28T08:05:07.000Z,278.51
2022-12-28T08:07:13.000Z,278.53
2022-12-28T08:08:39.000Z,278.56
2022-12-28T08:10:46.000Z,278.54
2022-12-28T08:12:12.000Z,278.54
2022-12-28T08:14:18.000Z,278.53
2022-12-28T08:15:45.000Z,278.57
2022-12-28T08:17:51.000Z,278.56
2022-12-28T08:20:42.000Z,278.6
2022-12-28T08:22:09.000Z,278.61
2022-12-28T08:24:15.000Z,278.56
2022-12-28T08:25:41.000Z,278.57
2022-12-28T08:27:47.000Z,278.57
2022-12-28T08:29:14.000Z,278.62
2022-12-28T08:31:20.000Z,278.6
2022-12-28T08:32:47.000Z,278.61
2022-12-28T08:34:53.000Z,278.6
2022-12-28T08:36:19.000Z,278.62
2022-12-28T08:38:25.000Z,278.67
2022-12-28T08:39:52.000Z,278.68
2022-12-28T08:41:58.000Z,278.69
2022-12-28T08:43:25.000Z,278.74
2022-12-28T08:45:31.000Z,278.75
2022-12-28T08:46:57.000Z,278.75
2022-12-28T08:49:03.000Z,278.75
2022-12-28T08:50:30.000Z,278.78
2022-12-28T08:52:37.000Z,278.79
2022-12-28T08:54:04.000Z,278.81
2022-12-28T08:56:10.000Z,278.81
2022-12-28T08:59:01.000Z,278.83
2022-12-28T09:00:28.000Z,278.83
2022-12-28T09:02:34.000Z,278.88
2022-12-28T09:04:01.000Z,278.9
2022-12-28T09:06:07.000Z,278.94
2022-12-28T09:07:33.000Z,278.99
2022-12-28T09:09:39.000Z,278.99
2022-12-28T09:11:06.000Z,278.99
2022-12-28T09:13:12.000Z,279.02
2022-12-28T09:14:39.000Z,279.02
2022-12-28T09:16:45.000Z,279.02
2022-12-28T09:18:11.000Z,279.05
2022-12-28T09:20:17.000Z,279.06
2022-12-28T09:21:44.000Z,279.08
2022-12-28T09:23:50.000Z,279.06
2022-12-28T09:25:17.000Z,279.09
2022-12-28T09:27:23.000Z,279.12
2022-12-28T09:28:50.000Z,279.13
2022-12-28T09:30:56.000Z,279.15
2022-12-28T09:32:22.000Z,279.15
2022-12-28T09:34:29.000Z,279.15
2022-12-28T09:37:27.000Z,279.12
2022-12-28T09:38:54.000Z,279.13
2022-12-28T09:41:00.000Z,279.12
2022-12-28T09:42:27.000Z,279.16
2022-12-28T09:44:33.000Z,279.16
2022-12-28T09:45:59.000Z,279.19
2022-12-28T09:48:05.000Z,279.22
2022-12-28T09:49:32.000Z,279.23
2022-12-28T09:51:38.000Z,279.23
2022-12-28T09:53:05.000Z,279.24
2022-12-28T09:55:11.000Z,279.23
2022-12-28T09:56:37.000Z,279.24
2022-12-28T09:58:43.000Z,279.24
2022-12-28T10:00:14.000Z,279.23
2022-12-28T10:02:23.000Z,279.26
2022-12-28T10:03:49.000Z,279.26
2022-12-28T10:05:55.000Z,279.27
2022-12-28T10:07:22.000Z,279.28
2022-12-28T10:09:28.000Z,279.31
2022-12-28T10:10:55.000Z,279.35
2022-12-28T10:13:01.000Z,279.38
2022-12-28T10:15:52.000Z,279.44
2022-12-28T10:17:18.000Z,279.47
2022-12-28T10:19:24.000Z,279.48
2022-12-28T10:20:51.000Z,279.52
2022-12-28T10:22:57.000Z,279.55
2022-12-28T10:24:23.000Z,279.54
2022-12-28T10:26:38.000Z,279.59
2022-12-28T10:28:05.000Z,279.65
2022-12-28T10:30:11.000Z,279.66
2022-12-28T10:31:37.000Z,279.72
2022-12-28T10:33:44.000Z,279.74
2022-12-28T10:35:10.000Z,279.76
2022-12-28T10:37:16.000Z,279.76
2022-12-28T10:38:43.000Z,279.76
2022-12-28T10:40:49.000Z,279.77
2022-12-28T10:42:15.000Z,279.76
2022-12-28T10:44:23.000Z,279.76
2022-12-28T10:46:06.000Z,279.8
2022-12-28T10:48:12.000Z,279.77
2022-12-28T10:49:39.000Z,279.8
2022-12-28T10:51:45.000Z,279.81
2022-12-28T10:54:37.000Z,279.81
2022-12-28T10:56:03.000Z,279.82
2022-12-28T10:58:09.000Z,279.82
2022-12-28T10:59:57.000Z,279.84
2022-12-28T11:02:03.000Z,279.85
2022-12-28T11:03:30.000Z,279.86
2022-12-28T11:05:36.000Z,279.88
2022-12-28T11:07:03.000Z,279.91
2022-12-28T11:09:09.000Z,279.92
2022-12-28T11:10:35.000Z,279.92
2022-12-28T11:12:41.000Z,279.92
2022-12-28T11:14:08.000Z,279.92
2022-12-28T11:16:14.000Z,279.95
2022-12-28T11:17:41.000Z,279.95
2022-12-28T11:19:47.000Z,279.96
2022-12-28T11:21:13.000Z,279.96
2022-12-28T11:23:20.000Z,279.98
2022-12-28T11:24:46.000Z,279.98
2022-12-28T11:26:52.000Z,279.99
2022-12-28T11:28:19.000Z,279.99
2022-12-28T11:30:28.000Z,280.02
2022-12-28T11:33:19.000Z,280.02
2022-12-28T11:34:46.000Z,280.03
2022-12-28T11:36:52.000Z,280.05
2022-12-28T11:38:18.000Z,280.06
2022-12-28T11:40:24.000Z,280.09
2022-12-28T11:41:51.000Z,280.12
2022-12-28T11:44:33.000Z,280.16
2022-12-28T11:46:00.000Z,280.2
2022-12-28T11:48:06.000Z,280.23
2022-12-28T11:49:33.000Z,280.24
2022-12-28T11:51:39.000Z,280.3
2022-12-28T11:53:05.000Z,280.31
2022-12-28T11:55:19.000Z,280.35
2022-12-28T11:56:46.000Z,280.4
2022-12-28T11:58:52.000Z,280.45
2022-12-28T12:00:18.000Z,280.46
2022-12-28T12:02:29.000Z,280.51
2022-12-28T12:03:55.000Z,280.56
2022-12-28T12:06:02.000Z,280.59
2022-12-28T12:07:28.000Z,280.61
2022-12-28T12:09:38.000Z,280.62
2022-12-28T12:12:29.000Z,280.66
2022-12-28T12:13:56.000Z,280.69
2022-12-28T12:16:02.000Z,280.72
2022-12-28T12:17:28.000Z,280.78
2022-12-28T12:19:34.000Z,280.79
2022-12-28T12:21:01.000Z,280.83
2022-12-28T12:23:07.000Z,280.83
2022-12-28T12:24:34.000Z,280.89
2022-12-28T12:26:40.000Z,280.91
2022-12-28T12:28:06.000Z,280.97
2022-12-28T12:30:12.000Z,281.01
2022-12-28T12:31:39.000Z,281.05
2022-12-28T12:33:45.000Z,281.11
2022-12-28T12:35:12.000Z,281.15
2022-12-28T12:37:18.000Z,281.16
2022-12-28T12:38:44.000Z,281.18
2022-12-28T12:40:50.000Z,281.16
2022-12-28T12:42:17.000Z,281.11
2022-12-28T12:44:23.000Z,281.1
2022-12-28T12:45:49.000Z,281.07
2022-12-28T12:47:56.000Z,281.01
2022-12-28T12:50:47.000Z,280.96
2022-12-28T12:52:13.000Z,280.93
2022-12-28T12:54:20.000Z,280.91
2022-12-28T12:55:46.000Z,280.89
2022-12-28T12:57:52.000Z,280.82
2022-12-28T12:59:19.000Z,280.8
2022-12-28T13:01:25.000Z,280.8
2022-12-28T13:02:52.000Z,280.79
2022-12-28T13:04:58.000Z,280.8
2022-12-28T13:06:24.000Z,280.83
2022-12-28T13:08:30.000Z,280.83
2022-12-28T13:09:57.000Z,280.83
2022-12-28T13:12:03.000Z,280.84
2022-12-28T13:13:30.000Z,280.84
2022-12-28T13:15:36.000Z,280.84
2022-12-28T13:17:02.000Z,280.82
2022-12-28T13:19:09.000Z,280.8
2022-12-28T13:20:35.000Z,280.78
2022-12-28T13:22:41.000Z,280.76
2022-12-28T13:24:08.000Z,280.71
2022-12-28T13:26:14.000Z,280.66
2022-12-28T13:29:05.000Z,280.62
2022-12-28T13:30:32.000Z,280.59
2022-12-28T13:32:38.000Z,280.57
2022-12-28T13:34:05.000Z,280.54
2022-12-28T13:36:11.000Z,280.56
2022-12-28T13:37:37.000Z,280.56
2022-12-28T13:39:43.000Z,280.54
2022-12-28T13:41:10.000Z,280.54
2022-12-28T13:43:16.000Z,280.53
2022-12-28T13:44:42.000Z,280.53
2022-12-28T13:46:49.000Z,280.53
2022-12-28T13:48:15.000Z,280.51
2022-12-28T13:50:21.000Z,280.5
2022-12-28T13:51:48.000Z,280.5
2022-12-28T13:53:59.000Z,280.5
2022-12-28T13:55:25.000Z,280.56
2022-12-28T13:57:32.000Z,280.57
2022-12-28T13:59:16.000Z,280.61
2022-12-28T14:01:22.000Z,280.65
2022-12-28T14:02:49.000Z,280.68
2022-12-28T14:04:55.000Z,280.72
2022-12-28T14:07:46.000Z,280.78
2022-12-28T14:09:13.000Z,280.79
2022-12-28T14:11:19.000Z,280.8
2022-12-28T14:12:45.000Z,280.83
2022-12-28T14:14:51.000Z,280.86
2022-12-28T14:16:18.000Z,280.87
2022-12-28T14:18:24.000Z,280.89
2022-12-28T14:19:51.000Z,280.86
2022-12-28T14:21:57.000Z,280.82
2022-12-28T14:23:23.000Z,280.82
2022-12-28T14:25:30.000Z,280.78
2022-12-28T14:26:56.000Z,280.75
2022-12-28T14:29:02.000Z,280.73
2022-12-28T14:30:29.000Z,280.69
2022-12-28T14:32:35.000Z,280.69
2022-12-28T14:34:09.000Z,280.65
2022-12-28T14:37:48.000Z,280.65
2022-12-28T14:38:21.000Z,280.65
2022-12-28T14:39:48.000Z,280.62
2022-12-28T14:41:54.000Z,280.61
2022-12-28T14:43:21.000Z,280.59
2022-12-28T14:45:27.000Z,280.57
2022-12-28T14:48:12.000Z,280.54
2022-12-28T14:49:38.000Z,280.53
2022-12-28T14:51:44.000Z,280.5
2022-12-28T14:53:11.000Z,280.43
2022-12-28T14:55:17.000Z,280.42
2022-12-28T14:56:44.000Z,280.4
2022-12-28T14:58:50.000Z,280.37
2022-12-28T15:00:17.000Z,280.35
2022-12-28T15:41:27.000Z,279.86
2022-12-28T15:42:53.000Z,279.88
2022-12-28T15:44:59.000Z,279.88
2022-12-28T15:46:26.000Z,279.88
2022-12-28T15:48:32.000Z,279.88
2022-12-28T15:49:59.000Z,279.85
2022-12-28T15:52:05.000Z,279.84
2022-12-28T15:53:31.000Z,279.84
2022-12-28T15:55:38.000Z,279.84
2022-12-28T15:57:04.000Z,279.81
2022-12-28T15:59:10.000Z,279.81
2022-12-28T16:00:37.000Z,279.8
2022-12-28T16:02:48.000Z,279.74
2022-12-28T16:04:15.000Z,279.77
2022-12-28T16:06:21.000Z,279.8
2022-12-28T16:07:48.000Z,279.81
2022-12-28T16:09:54.000Z,279.81
2022-12-28T16:11:21.000Z,279.8
2022-12-28T16:13:27.000Z,279.76
2022-12-28T16:16:17.000Z,279.77
2022-12-28T16:17:44.000Z,279.76
2022-12-28T16:20:03.000Z,279.73
2022-12-28T16:21:29.000Z,279.7
2022-12-28T16:23:35.000Z,279.7
2022-12-28T16:25:02.000Z,279.72
2022-12-28T16:27:08.000Z,279.72
2022-12-28T16:28:34.000Z,279.7
2022-12-28T16:30:41.000Z,279.7
2022-12-28T16:32:07.000Z,279.72
2022-12-28T16:34:13.000Z,279.72
2022-12-28T16:35:40.000Z,279.72
2022-12-28T16:37:46.000Z,279.7
2022-12-28T16:39:12.000Z,279.69
2022-12-28T16:41:19.000Z,279.69
2022-12-28T16:42:45.000Z,279.7
2022-12-28T16:44:52.000Z,279.7
2022-12-28T16:46:18.000Z,279.7
2022-12-28T16:48:25.000Z,279.7
2022-12-28T16:49:51.000Z,279.73
2022-12-28T16:51:58.000Z,279.76
2022-12-28T16:54:49.000Z,279.74
2022-12-28T16:56:15.000Z,279.8
2022-12-28T16:58:21.000Z,279.8
2022-12-28T16:59:48.000Z,279.82
2022-12-28T17:01:54.000Z,279.82
2022-12-28T17:03:21.000Z,279.84
2022-12-28T17:05:27.000Z,279.84
2022-12-28T17:06:54.000Z,279.84
2022-12-28T17:09:00.000Z,279.85
2022-12-28T17:10:26.000Z,279.86
2022-12-28T17:12:33.000Z,279.86
2022-12-28T17:13:59.000Z,279.85
2022-12-28T17:16:05.000Z,279.86
2022-12-28T17:17:32.000Z,279.92
2022-12-28T17:19:38.000Z,279.91
2022-12-28T17:21:05.000Z,279.91
2022-12-28T17:23:13.000Z,279.96
2022-12-28T17:24:39.000Z,280
2022-12-28T17:26:45.000Z,280.02
2022-12-28T17:28:12.000Z,279.99
2022-12-28T17:30:19.000Z,279.99
2022-12-28T17:33:10.000Z,280.02
2022-12-28T17:34:37.000Z,280.03
2022-12-28T17:36:43.000Z,280.02
2022-12-28T17:38:10.000Z,280.06
2022-12-28T17:40:16.000Z,280.07
2022-12-28T17:41:42.000Z,280.09
2022-12-28T17:43:49.000Z,280.06
2022-12-28T17:45:15.000Z,280.09
2022-12-28T17:47:21.000Z,280.14
2022-12-28T17:48:48.000Z,280.14
2022-12-28T17:50:54.000Z,280.12
2022-12-28T17:52:20.000Z,280.2
2022-12-28T17:54:26.000Z,280.23
2022-12-28T17:55:53.000Z,280.25
2022-12-28T17:57:59.000Z,280.3
2022-12-28T17:59:26.000Z,280.32
2022-12-28T18:01:32.000Z,280.37
2022-12-28T18:02:59.000Z,280.37
2022-12-28T18:05:05.000Z,280.37
2022-12-28T18:06:31.000Z,280.38
2022-12-28T18:08:38.000Z,280.42
2022-12-28T18:11:29.000Z,280.46
2022-12-28T18:12:55.000Z,280.43
2022-12-28T18:15:01.000Z,280.4
2022-12-28T18:16:28.000Z,280.4
2022-12-28T18:18:34.000Z,280.31
2022-12-28T18:20:01.000Z,280.34
2022-12-28T18:22:07.000Z,280.37
2022-12-28T18:23:33.000Z,280.43
2022-12-28T18:25:39.000Z,280.38
2022-12-28T18:27:06.000Z,280.34
2022-12-28T18:29:12.000Z,280.37
2022-12-28T18:30:38.000Z,280.34
2022-12-28T18:32:45.000Z,280.3
2022-12-28T18:34:11.000Z,280.24
2022-12-28T18:36:17.000Z,280.27
2022-12-28T18:37:45.000Z,280.2
2022-12-28T18:39:51.000Z,280.2
2022-12-28T18:41:17.000Z,280.31
2022-12-28T18:43:23.000Z,280.45
2022-12-28T18:44:50.000Z,280.42
2022-12-28T18:46:56.000Z,280.38
2022-12-28T18:49:47.000Z,280.32
2022-12-28T18:51:14.000Z,280.37
2022-12-28T18:53:20.000Z,280.35
2022-12-28T18:54:47.000Z,280.38
2022-12-28T18:56:53.000Z,280.42
2022-12-28T18:58:19.000Z,280.4
2022-12-28T19:00:25.000Z,280.32
2022-12-28T19:01:52.000Z,280.31
2022-12-28T19:04:17.000Z,280.27
2022-12-28T19:05:44.000Z,280.23
2022-12-28T19:07:50.000Z,280.21
2022-12-28T19:09:17.000Z,280.23
2022-12-28T19:11:23.000Z,280.27
2022-12-28T19:12:50.000Z,280.24
2022-12-28T19:14:56.000Z,280.24
2022-12-28T19:16:22.000Z,280.23
2022-12-28T19:18:37.000Z,280.28
2022-12-28T19:20:03.000Z,280.28
2022-12-28T19:22:10.000Z,280.28
2022-12-28T19:23:36.000Z,280.28
2022-12-28T19:25:42.000Z,280.27
2022-12-28T19:28:33.000Z,280.31
2022-12-28T19:30:00.000Z,280.35
2022-12-28T19:32:06.000Z,280.42
2022-12-28T19:33:32.000Z,280.42
2022-12-28T19:35:38.000Z,280.42
2022-12-28T19:37:05.000Z,280.45
2022-12-28T19:39:11.000Z,280.4
2022-12-28T19:40:37.000Z,280.43
2022-12-28T19:42:43.000Z,280.43
2022-12-28T19:44:10.000Z,280.43
2022-12-28T19:46:16.000Z,280.45
2022-12-28T19:47:43.000Z,280.43
2022-12-28T19:49:49.000Z,280.45
2022-12-28T19:51:15.000Z,280.46
2022-12-28T19:53:22.000Z,280.49
2022-12-28T19:54:48.000Z,280.53
2022-12-28T19:56:54.000Z,280.56
2022-12-28T19:58:21.000Z,280.56
2022-12-28T20:00:27.000Z,280.56
2022-12-28T20:01:53.000Z,280.61
2022-12-28T20:04:00.000Z,280.65
2022-12-28T20:06:51.000Z,280.62
2022-12-28T20:08:17.000Z,280.59
2022-12-28T20:10:24.000Z,280.68
2022-12-28T20:11:50.000Z,280.69
2022-12-28T20:13:56.000Z,280.75
2022-12-28T20:15:23.000Z,280.78
2022-12-28T20:17:29.000Z,280.76
2022-12-28T20:18:55.000Z,280.76
2022-12-28T20:21:01.000Z,280.8
2022-12-28T20:22:46.000Z,280.9
2022-12-28T20:26:25.000Z,280.9
2022-12-28T20:28:18.000Z,280.87
2022-12-28T20:29:45.000Z,280.87
2022-12-28T20:31:51.000Z,280.86
2022-12-28T20:33:17.000Z,280.89
2022-12-28T20:35:24.000Z,280.86
2022-12-28T20:36:50.000Z,280.84
2022-12-28T20:38:56.000Z,280.84
2022-12-28T20:40:23.000Z,280.89
2022-12-28T20:42:29.000Z,280.86
2022-12-28T20:43:56.000Z,280.84
2022-12-28T20:46:02.000Z,280.84
2022-12-28T20:47:28.000Z,280.89
2022-12-28T20:49:34.000Z,280.89
2022-12-28T20:51:01.000Z,280.9
2022-12-28T20:53:07.000Z,280.9
2022-12-28T20:54:33.000Z,280.89
2022-12-28T20:56:40.000Z,280.9
2022-12-28T20:58:06.000Z,280.96
2022-12-28T21:00:12.000Z,280.96
2022-12-28T21:01:39.000Z,280.96
2022-12-28T21:03:46.000Z,280.98
2022-12-28T21:06:37.000Z,280.98
2022-12-28T21:08:04.000Z,280.96
2022-12-28T21:10:10.000Z,280.97
2022-12-28T21:11:37.000Z,280.94
2022-12-28T21:13:43.000Z,280.94
2022-12-28T21:15:11.000Z,280.91
2022-12-28T21:17:17.000Z,280.93
2022-12-28T21:18:43.000Z,280.9
2022-12-28T21:20:49.000Z,280.87
2022-12-28T21:22:16.000Z,280.82
2022-12-28T21:24:22.000Z,280.76
2022-12-28T21:25:49.000Z,280.76
2022-12-28T21:27:55.000Z,280.73
2022-12-28T21:29:21.000Z,280.72
2022-12-28T21:31:32.000Z,280.75
2022-12-28T21:32:58.000Z,280.79
2022-12-28T21:35:05.000Z,280.78
2022-12-28T21:36:31.000Z,280.73
2022-12-28T21:38:37.000Z,280.72
2022-12-28T21:40:04.000Z,280.72
2022-12-28T21:42:10.000Z,280.72
2022-12-28T21:45:01.000Z,280.69
2022-12-28T21:46:27.000Z,280.68
2022-12-28T21:48:34.000Z,280.65
2022-12-28T21:50:00.000Z,280.61
2022-12-28T21:52:06.000Z,280.62
2022-12-28T21:53:33.000Z,280.61
2022-12-28T21:55:39.000Z,280.64
2022-12-28T21:57:05.000Z,280.68
2022-12-28T21:59:13.000Z,280.71
2022-12-28T22:00:39.000Z,280.68
2022-12-28T22:02:45.000Z,280.66
2022-12-28T22:04:12.000Z,280.68
2022-12-28T22:06:18.000Z,280.68
2022-12-28T22:07:45.000Z,280.66
2022-12-28T22:09:51.000Z,280.64
2022-12-28T22:11:17.000Z,280.65
2022-12-28T22:13:23.000Z,280.64
2022-12-28T22:14:50.000Z,280.66
2022-12-28T22:16:56.000Z,280.72
2022-12-28T22:20:42.000Z,280.78
2022-12-28T22:23:34.000Z,280.78
2022-12-28T22:25:01.000Z,280.75
2022-12-28T22:27:07.000Z,280.75
2022-12-28T22:28:34.000Z,280.76
2022-12-28T22:30:40.000Z,280.75
2022-12-28T22:32:06.000Z,280.71
2022-12-28T22:34:13.000Z,280.72
2022-12-28T22:35:39.000Z,280.72
2022-12-28T22:37:45.000Z,280.76
2022-12-28T22:39:12.000Z,280.8
2022-12-28T22:41:18.000Z,280.79
2022-12-28T22:42:44.000Z,280.79
2022-12-28T22:44:51.000Z,280.76
2022-12-28T22:46:17.000Z,280.79
2022-12-28T22:48:23.000Z,280.8
2022-12-28T22:49:50.000Z,280.78
2022-12-28T22:51:56.000Z,280.73
2022-12-28T22:53:23.000Z,280.72
2022-12-28T22:55:29.000Z,280.71
2022-12-28T22:56:55.000Z,280.72
2022-12-28T22:59:01.000Z,280.71
2022-12-28T23:01:56.000Z,280.71
2022-12-28T23:03:23.000Z,280.8
2022-12-28T23:05:29.000Z,280.82
2022-12-28T23:06:56.000Z,280.86
2022-12-28T23:09:09.000Z,280.89
2022-12-28T23:10:36.000Z,280.93
2022-12-28T23:12:42.000Z,280.93
2022-12-28T23:14:08.000Z,280.91
2022-12-28T23:16:14.000Z,280.96
2022-12-28T23:17:41.000Z,280.97
2022-12-28T23:19:47.000Z,280.97
2022-12-28T23:21:14.000Z,281.03
2022-12-28T23:23:20.000Z,281.04
2022-12-28T23:24:46.000Z,281.1
2022-12-28T23:26:52.000Z,281.14
2022-12-28T23:28:19.000Z,281.16
2022-12-28T23:30:25.000Z,281.15
2022-12-28T23:31:52.000Z,281.19
2022-12-28T23:33:58.000Z,281.25
2022-12-28T23:35:24.000Z,281.25
2022-12-28T23:37:31.000Z,281.28
2022-12-28T23:40:22.000Z,281.29